Time;durP1;ratioP1;P1;durP2;ratioP2;P2;SDS_P1;SDS_P2;PMS_P1;PMS_P2;Temp;Humidity;BMP_temperature;BMP_pressure;BME280_temperature;BME280_humidity;BME280_pressure;Samples;Min_cycle;Max_cycle;Signal;HPM_P1;HPM_P2
2023/08/27 00:00:51;;;;;;;10.85;9.85;;;;;;;23.86;76.72;94504.25;5050783;28;20709;-42
2023/08/27 00:03:17;;;;;;;14.45;10.13;;;;;;;23.88;76.82;94511.88;5050982;28;20632;-43
2023/08/27 00:05:45;;;;;;;11.88;9.48;;;;;;;23.79;76.71;94495.72;5050424;28;20601;-43
2023/08/27 00:08:12;;;;;;;10.38;9.32;;;;;;;23.77;76.74;94498.56;5050745;28;20194;-43
2023/08/27 00:10:39;;;;;;;11.60;9.45;;;;;;;23.73;76.87;94500.03;5050355;28;20191;-46
2023/08/27 00:13:06;;;;;;;11.35;9.63;;;;;;;23.58;76.74;94480.56;5050764;28;20191;-45
2023/08/27 00:15:33;;;;;;;10.50;9.50;;;;;;;23.60;76.98;94487.13;5050514;28;20318;-42
2023/08/27 00:17:59;;;;;;;10.68;9.63;;;;;;;23.65;76.86;94494.31;5050526;28;20191;-42
2023/08/27 00:20:26;;;;;;;10.93;9.82;;;;;;;23.63;76.92;94485.91;5050787;28;20193;-41
2023/08/27 00:22:55;;;;;;;12.13;10.73;;;;;;;23.57;77.19;94473.72;5049904;28;20274;-43
2023/08/27 00:25:21;;;;;;;11.10;10.00;;;;;;;23.49;77.12;94467.81;5050652;28;20179;-43
2023/08/27 00:27:48;;;;;;;14.60;10.80;;;;;;;23.59;77.53;94484.75;5050116;28;20272;-43
2023/08/27 00:30:15;;;;;;;14.50;10.48;;;;;;;23.55;77.56;94479.19;5050606;28;20245;-44
2023/08/27 00:32:42;;;;;;;11.30;10.02;;;;;;;23.52;77.51;94477.00;5050312;28;20194;-43
2023/08/27 00:35:09;;;;;;;10.88;9.70;;;;;;;23.46;77.71;94473.47;5050564;28;20294;-43
2023/08/27 00:37:36;;;;;;;11.95;10.65;;;;;;;23.37;77.86;94461.78;5049951;28;20264;-43
2023/08/27 00:40:05;;;;;;;10.13;9.15;;;;;;;23.46;78.17;94476.09;5050174;28;20195;-43
2023/08/27 00:42:32;;;;;;;12.18;9.88;;;;;;;23.45;78.12;94469.28;5049895;28;20187;-45
2023/08/27 00:44:59;;;;;;;10.25;9.25;;;;;;;23.44;78.00;94474.72;5049935;28;20190;-44
2023/08/27 00:47:26;;;;;;;11.13;9.98;;;;;;;23.42;78.10;94474.94;5049896;28;20198;-43
2023/08/27 00:49:52;;;;;;;12.05;9.85;;;;;;;23.37;77.95;94461.78;5049742;28;20182;-44
2023/08/27 00:52:21;;;;;;;10.52;9.52;;;;;;;23.36;78.17;94473.22;5050201;28;20187;-44
2023/08/27 00:54:48;;;;;;;11.65;9.73;;;;;;;23.32;78.28;94464.25;5049616;28;20214;-42
2023/08/27 00:57:18;;;;;;;10.75;9.75;;;;;;;23.32;78.49;94466.06;5050122;28;20199;-44
2023/08/27 00:59:46;;;;;;;11.15;10.05;;;;;;;22.86;78.36;94404.84;5049105;28;20210;-44
2023/08/27 01:02:12;;;;;;;13.50;9.70;;;;;;;23.23;78.55;94469.00;5049601;28;20190;-45
2023/08/27 01:04:39;;;;;;;10.52;9.52;;;;;;;23.17;78.92;94472.47;5049582;28;20199;-43
2023/08/27 01:07:15;;;;;;;10.80;9.60;;;;;;;23.16;79.05;94480.53;5049437;28;20701;-44
2023/08/27 01:09:47;;;;;;;11.95;9.48;;;;;;;23.12;79.29;94477.56;5049425;28;20567;-42
2023/08/27 01:12:22;;;;;;;12.60;9.30;;;;;;;23.07;79.51;94484.47;5049522;28;20290;-43
2023/08/27 01:14:50;;;;;;;11.60;10.23;;;;;;;23.02;79.42;94478.09;5049017;28;20701;-44
2023/08/27 01:17:19;;;;;;;11.80;10.00;;;;;;;22.98;79.76;94484.75;5049462;28;20194;-45
2023/08/27 01:19:48;;;;;;;11.02;9.38;;;;;;;22.53;79.99;94419.06;5050844;28;20198;-42
2023/08/27 01:22:16;;;;;;;11.20;10.07;;;;;;;22.86;80.06;94470.81;5049339;28;20194;-43
2023/08/27 01:24:43;;;;;;;13.20;9.50;;;;;;;22.86;80.30;94483.06;5049331;28;20187;-45
2023/08/27 01:27:13;;;;;;;11.38;10.15;;;;;;;22.84;80.11;94472.88;5049540;28;20210;-43
2023/08/27 01:29:46;;;;;;;14.40;10.13;;;;;;;22.85;80.60;94478.88;5049103;28;20194;-43
2023/08/27 01:32:20;;;;;;;11.15;9.68;;;;;;;22.60;80.46;94445.84;5049411;28;20619;-43
2023/08/27 01:34:48;;;;;;;11.23;9.32;;;;;;;22.77;80.35;94474.75;5048870;28;20222;-42
2023/08/27 01:37:17;;;;;;;12.13;9.13;;;;;;;22.74;80.45;94481.19;5049407;28;20207;-43
2023/08/27 01:39:44;;;;;;;10.05;8.88;;;;;;;22.71;80.84;94480.81;5048981;28;20709;-43
2023/08/27 01:42:12;;;;;;;10.43;9.32;;;;;;;22.69;80.65;94494.06;5049126;28;20214;-42
2023/08/27 01:44:39;;;;;;;10.80;9.70;;;;;;;22.67;80.94;94490.13;5049157;28;20272;-43
2023/08/27 01:47:07;;;;;;;11.57;9.50;;;;;;;22.61;81.29;94485.75;5049157;28;20736;-42
2023/08/27 01:49:34;;;;;;;10.73;9.50;;;;;;;22.54;80.95;94473.59;5049092;28;20643;-43
2023/08/27 01:52:01;;;;;;;15.38;9.02;;;;;;;22.64;80.87;94490.53;5049269;28;20179;-43
2023/08/27 01:54:32;;;;;;;13.10;10.60;;;;;;;22.67;81.39;94485.69;5049080;28;20191;-43
2023/08/27 01:56:59;;;;;;;13.45;9.75;;;;;;;22.67;81.40;94487.50;5049122;28;20205;-43
2023/08/27 01:59:26;;;;;;;14.23;10.10;;;;;;;22.61;81.76;94485.75;5048913;28;20198;-43
2023/08/27 02:01:53;;;;;;;14.30;9.55;;;;;;;22.61;81.32;94477.94;5049005;28;20191;-43
2023/08/27 02:04:20;;;;;;;10.70;9.60;;;;;;;22.57;81.64;94480.16;5048922;28;20230;-46
2023/08/27 02:06:46;;;;;;;16.40;9.90;;;;;;;22.54;81.58;94485.84;5049157;28;20183;-44
2023/08/27 02:09:13;;;;;;;11.65;9.00;;;;;;;22.53;81.57;94479.81;5048966;28;20655;-45
2023/08/27 02:11:41;;;;;;;10.23;9.23;;;;;;;22.52;81.68;94473.00;5052026;28;20586;-44
2023/08/27 02:14:08;;;;;;;14.43;10.57;;;;;;;22.52;81.60;94469.59;5053108;28;20198;-42
2023/08/27 02:16:35;;;;;;;10.65;9.52;;;;;;;22.50;81.75;94476.84;5052429;28;20210;-44
2023/08/27 02:19:03;;;;;;;10.32;9.32;;;;;;;22.50;81.55;94469.03;5052980;28;20206;-43
2023/08/27 02:21:30;;;;;;;13.32;9.45;;;;;;;22.47;81.57;94472.84;5052488;28;20191;-43
2023/08/27 02:23:56;;;;;;;11.07;9.05;;;;;;;22.15;81.90;94421.88;5052740;28;20661;-43
2023/08/27 02:26:23;;;;;;;10.13;8.93;;;;;;;22.43;81.55;94468.31;5052685;28;20439;-45
2023/08/27 02:28:51;;;;;;;11.00;9.07;;;;;;;22.38;81.57;94462.94;5052239;28;20281;-43
2023/08/27 02:31:18;;;;;;;11.23;9.88;;;;;;;22.42;81.46;94471.94;5052399;28;20191;-44
2023/08/27 02:33:46;;;;;;;12.23;9.15;;;;;;;22.44;81.47;94469.88;5052869;28;20199;-43
2023/08/27 02:36:12;;;;;;;10.45;9.40;;;;;;;22.44;81.19;94470.69;5051782;28;20229;-42
2023/08/27 02:38:39;;;;;;;12.60;9.85;;;;;;;22.45;81.28;94469.69;5052441;28;20195;-44
2023/08/27 02:41:06;;;;;;;10.75;9.15;;;;;;;22.38;81.18;94462.94;5052185;28;20667;-44
2023/08/27 02:43:33;;;;;;;12.35;8.88;;;;;;;22.34;80.89;94464.38;5052265;28;20195;-44
2023/08/27 02:46:01;;;;;;;12.32;10.20;;;;;;;22.31;81.08;94475.22;5052015;28;20190;-44
2023/08/27 02:48:28;;;;;;;10.07;8.98;;;;;;;22.29;81.21;94470.25;5051894;28;20301;-43
2023/08/27 02:50:55;;;;;;;10.88;9.77;;;;;;;22.27;81.50;94473.06;5052236;28;20543;-43
2023/08/27 02:53:22;;;;;;;10.70;8.75;;;;;;;22.25;81.51;94464.66;5051836;28;20195;-45
2023/08/27 02:55:49;;;;;;;15.77;9.38;;;;;;;22.09;81.35;94446.16;5052117;28;20223;-44
2023/08/27 02:58:16;;;;;;;12.65;9.02;;;;;;;22.20;81.60;94467.13;5051883;28;20205;-43
2023/08/27 03:00:42;;;;;;;10.93;9.48;;;;;;;22.22;81.49;94472.09;5052288;28;20202;-44
2023/08/27 03:03:11;;;;;;;9.95;8.27;;;;;;;22.21;81.59;94480.94;5051783;28;20183;-44
2023/08/27 03:05:37;;;;;;;11.15;8.68;;;;;;;22.12;81.54;94462.19;5052198;28;20179;-45
2023/08/27 03:08:04;;;;;;;10.18;8.13;;;;;;;22.10;81.73;94466.78;5051720;28;20659;-44
2023/08/27 03:10:31;;;;;;;10.05;8.55;;;;;;;22.13;81.90;94471.59;5053407;28;20199;-45
2023/08/27 03:12:58;;;;;;;17.38;9.73;;;;;;;22.12;82.21;94477.00;5051775;28;20188;-42
2023/08/27 03:15:25;;;;;;;11.77;9.40;;;;;;;22.03;82.26;94464.25;5051936;28;20218;-44
2023/08/27 03:17:52;;;;;;;10.63;9.15;;;;;;;22.08;82.20;94479.22;5052246;28;20195;-44
2023/08/27 03:20:20;;;;;;;14.18;9.27;;;;;;;22.07;82.29;94482.84;5051376;28;20689;-43
2023/08/27 03:22:47;;;;;;;10.00;9.00;;;;;;;22.05;82.55;94470.03;5051899;28;20188;-42
2023/08/27 03:25:14;;;;;;;12.85;8.88;;;;;;;22.02;82.54;94478.28;5051312;28;20277;-43
2023/08/27 03:27:40;;;;;;;10.00;9.00;;;;;;;22.01;82.81;94475.88;5051934;28;20231;-44
2023/08/27 03:30:08;;;;;;;11.18;9.73;;;;;;;22.02;83.00;94480.06;5051127;28;20202;-43
2023/08/27 03:32:36;;;;;;;16.23;9.57;;;;;;;22.01;82.79;94481.06;5051339;28;20190;-44
2023/08/27 03:35:03;;;;;;;9.93;8.93;;;;;;;22.00;83.07;94474.28;5051213;28;20642;-43
2023/08/27 03:37:31;;;;;;;11.90;10.00;;;;;;;21.97;83.00;94477.31;5051235;28;20705;-43
2023/08/27 03:39:58;;;;;;;10.50;9.50;;;;;;;21.86;83.18;94468.41;5050922;28;20218;-43
2023/08/27 03:42:25;;;;;;;10.70;9.13;;;;;;;21.94;83.38;94477.75;5051262;28;20186;-42
2023/08/27 03:44:51;;;;;;;10.93;9.82;;;;;;;21.83;83.29;94468.81;5050927;28;20197;-44
2023/08/27 03:47:18;;;;;;;10.07;8.73;;;;;;;21.94;83.34;94490.78;5051139;28;20233;-42
2023/08/27 03:49:45;;;;;;;9.85;8.93;;;;;;;21.92;83.31;94480.56;5050943;28;20627;-42
2023/08/27 03:52:12;;;;;;;13.23;9.75;;;;;;;21.95;83.35;94485.34;5051290;28;20260;-43
2023/08/27 03:54:40;;;;;;;11.18;9.30;;;;;;;21.97;83.25;94492.94;5051010;28;20240;-42
2023/08/27 03:57:06;;;;;;;11.02;8.57;;;;;;;21.95;83.04;94487.94;5050709;28;20610;-42
2023/08/27 03:59:33;;;;;;;11.15;9.55;;;;;;;21.93;83.39;94489.16;5050719;28;20693;-44
2023/08/27 04:02:00;;;;;;;10.38;9.38;;;;;;;21.93;83.33;94492.56;5050540;28;20183;-44
2023/08/27 04:04:27;;;;;;;9.80;8.90;;;;;;;21.96;83.23;94489.53;5050876;28;20573;-43
2023/08/27 04:06:55;;;;;;;12.65;9.45;;;;;;;21.98;83.15;94497.94;5050812;28;20382;-43
2023/08/27 04:09:22;;;;;;;12.68;10.43;;;;;;;22.01;83.08;94505.31;5050983;28;20272;-44
2023/08/27 04:11:50;;;;;;;11.75;9.15;;;;;;;21.93;83.14;94489.16;5050463;28;20191;-42
2023/08/27 04:14:17;;;;;;;9.60;8.60;;;;;;;22.05;83.27;94498.66;5050391;28;20272;-43
2023/08/27 04:16:43;;;;;;;9.93;9.00;;;;;;;21.92;82.83;94483.16;5050657;28;20223;-45
2023/08/27 04:19:10;;;;;;;12.20;9.32;;;;;;;22.02;83.11;94506.09;5050806;28;20217;-41
2023/08/27 04:21:37;;;;;;;18.75;9.38;;;;;;;22.02;83.10;94509.53;5050729;28;20198;-44
2023/08/27 04:24:04;;;;;;;10.65;9.13;;;;;;;22.05;82.94;94505.69;5050486;28;20632;-42
2023/08/27 04:26:31;;;;;;;10.82;9.35;;;;;;;22.03;82.98;94502.50;5050362;28;20281;-42
2023/08/27 04:28:59;;;;;;;10.40;9.32;;;;;;;21.68;83.03;94440.50;5050019;28;20219;-43
2023/08/27 04:31:26;;;;;;;13.93;11.02;;;;;;;22.16;83.00;94504.25;5050176;28;20195;-41
2023/08/27 04:33:53;;;;;;;18.92;10.07;;;;;;;22.28;82.68;94500.72;5049580;28;20198;-41
2023/08/27 04:36:20;;;;;;;11.98;10.00;;;;;;;22.40;82.24;94506.00;5050371;28;20278;-44
2023/08/27 04:38:46;;;;;;;10.70;9.60;;;;;;;22.51;81.53;94492.28;5049997;28;20184;-42
2023/08/27 04:41:13;;;;;;;10.90;8.95;;;;;;;22.81;80.67;94501.97;5050232;28;20309;-43
2023/08/27 04:43:40;;;;;;;13.18;9.35;;;;;;;22.99;79.44;94502.00;5049735;28;20619;-43
2023/08/27 04:46:08;;;;;;;10.15;9.15;;;;;;;23.13;77.85;94502.63;5050261;28;20233;-42
2023/08/27 04:48:35;;;;;;;10.40;9.40;;;;;;;23.20;77.10;94500.72;5049834;28;20187;-42
2023/08/27 04:51:02;;;;;;;11.80;9.57;;;;;;;23.23;76.70;94508.13;5050131;28;20195;-43
2023/08/27 04:53:29;;;;;;;11.63;9.63;;;;;;;23.24;76.52;94506.31;5049798;28;20264;-43
2023/08/27 04:55:56;;;;;;;12.18;10.02;;;;;;;23.22;76.79;94510.94;5050225;28;20230;-44
2023/08/27 04:58:22;;;;;;;14.02;9.60;;;;;;;23.31;76.73;94517.44;5049231;28;20191;-43
2023/08/27 05:00:52;;;;;;;13.70;10.00;;;;;;;23.38;76.69;94512.16;5050729;28;20191;-43
2023/08/27 05:03:20;;;;;;;11.43;10.23;;;;;;;23.45;76.60;94515.47;5050869;28;20194;-43
2023/08/27 05:05:47;;;;;;;10.98;9.80;;;;;;;23.53;76.02;94518.56;5049729;28;20297;-42
2023/08/27 05:08:14;;;;;;;10.75;9.65;;;;;;;23.68;75.25;94523.41;5049981;28;20193;-43
2023/08/27 05:10:40;;;;;;;10.50;9.35;;;;;;;23.68;74.84;94514.78;5049558;28;20557;-44
2023/08/27 05:13:07;;;;;;;12.18;9.63;;;;;;;23.68;74.45;94522.59;5049691;28;20191;-43
2023/08/27 05:15:34;;;;;;;11.23;10.13;;;;;;;23.71;74.47;94517.75;5049338;28;20582;-43
2023/08/27 05:18:01;;;;;;;15.38;10.32;;;;;;;23.80;73.87;94515.59;5049416;28;20621;-43
2023/08/27 05:20:29;;;;;;;13.45;10.05;;;;;;;23.89;73.64;94508.25;5049129;28;20670;-43
2023/08/27 05:22:56;;;;;;;12.27;9.18;;;;;;;24.16;73.00;94514.63;5049546;28;20187;-44
2023/08/27 05:25:22;;;;;;;12.27;9.77;;;;;;;24.51;72.03;94524.31;5049246;28;20579;-43
2023/08/27 05:27:49;;;;;;;14.57;9.85;;;;;;;24.80;70.65;94517.38;5049416;28;20722;-43
2023/08/27 05:30:16;;;;;;;10.98;9.82;;;;;;;25.06;69.85;94520.50;5049321;28;20214;-43
2023/08/27 05:32:43;;;;;;;12.77;10.05;;;;;;;25.26;68.71;94513.88;5049442;28;20248;-43
2023/08/27 05:35:10;;;;;;;10.57;9.57;;;;;;;25.54;67.93;94530.59;5049401;28;20198;-43
2023/08/27 05:37:38;;;;;;;12.80;10.02;;;;;;;25.74;67.31;94524.94;5049365;28;20223;-43
2023/08/27 05:40:06;;;;;;;11.50;10.10;;;;;;;26.06;65.45;94527.84;5049334;28;20191;-44
2023/08/27 05:42:33;;;;;;;13.77;9.65;;;;;;;26.29;64.69;94534.75;5049128;28;20610;-43
2023/08/27 05:45:00;;;;;;;10.68;9.48;;;;;;;26.57;63.70;94531.25;5049551;28;20202;-43
2023/08/27 05:47:27;;;;;;;12.63;10.00;;;;;;;26.82;62.91;94530.03;5053189;28;20670;-44
2023/08/27 05:49:54;;;;;;;13.60;9.90;;;;;;;26.98;62.27;94537.81;5053517;28;20618;-43
2023/08/27 05:52:21;;;;;;;15.30;9.55;;;;;;;27.26;61.21;94530.84;5052948;28;20646;-45
2023/08/27 05:54:49;;;;;;;12.05;7.95;;;;;;;27.61;60.76;94521.75;5053388;28;20195;-45
2023/08/27 05:57:16;;;;;;;11.93;9.48;;;;;;;27.95;58.83;94522.38;5052614;28;20287;-44
2023/08/27 05:59:43;;;;;;;12.52;9.38;;;;;;;28.08;57.71;94516.69;5053459;28;20187;-44
2023/08/27 06:02:10;;;;;;;9.77;8.68;;;;;;;28.05;57.41;94511.13;5053014;28;20187;-44
2023/08/27 06:04:37;;;;;;;10.55;9.30;;;;;;;28.12;57.84;94514.34;5053375;28;20202;-44
2023/08/27 06:07:04;;;;;;;10.60;8.65;;;;;;;28.24;57.49;94512.34;5053151;28;20230;-46
2023/08/27 06:09:30;;;;;;;10.57;8.70;;;;;;;28.34;57.09;94504.53;5053234;28;20190;-43
2023/08/27 06:11:59;;;;;;;13.60;8.95;;;;;;;28.75;55.75;94515.31;5052955;28;20191;-44
2023/08/27 06:14:26;;;;;;;9.98;8.98;;;;;;;28.82;55.21;94513.25;5053088;28;20249;-45
2023/08/27 06:16:53;;;;;;;12.82;9.20;;;;;;;28.61;55.17;94464.19;5053026;28;20601;-42
2023/08/27 06:19:19;;;;;;;11.52;9.82;;;;;;;28.94;54.96;94510.41;5052677;28;20195;-43
2023/08/27 06:21:46;;;;;;;13.35;8.45;;;;;;;28.98;54.88;94511.50;5052960;28;20195;-44
2023/08/27 06:24:13;;;;;;;11.25;8.35;;;;;;;29.00;54.94;94512.81;5052305;28;20197;-43
2023/08/27 06:26:40;;;;;;;11.57;8.80;;;;;;;29.14;53.79;94501.81;5052625;28;20187;-43
2023/08/27 06:29:08;;;;;;;14.15;7.72;;;;;;;29.36;53.87;94498.97;5052213;28;20722;-43
2023/08/27 06:31:35;;;;;;;10.00;8.18;;;;;;;29.60;53.81;94500.13;5052598;28;20191;-43
2023/08/27 06:34:01;;;;;;;14.55;8.48;;;;;;;29.79;52.00;94484.59;5052521;28;20194;-45
2023/08/27 06:36:28;;;;;;;11.55;7.95;;;;;;;30.13;51.39;94499.91;5052695;28;20211;-45
2023/08/27 06:38:55;;;;;;;9.18;8.27;;;;;;;30.38;50.47;94496.47;5052422;28;20289;-45
2023/08/27 06:41:22;;;;;;;9.38;7.68;;;;;;;30.78;49.17;94505.38;5052321;28;20199;-43
2023/08/27 06:43:48;;;;;;;9.70;7.57;;;;;;;31.08;48.88;94499.22;5052624;28;20203;-43
2023/08/27 06:46:16;;;;;;;10.20;7.68;;;;;;;31.38;48.03;94503.59;5052241;28;20294;-43
2023/08/27 06:48:43;;;;;;;9.55;7.72;;;;;;;31.62;46.64;94501.88;5052373;28;20190;-44
2023/08/27 06:51:10;;;;;;;10.32;6.78;;;;;;;31.94;46.27;94508.56;5052155;28;20179;-44
2023/08/27 06:53:37;;;;;;;11.48;7.40;;;;;;;32.03;45.79;94506.88;5054858;28;20651;-44
2023/08/27 06:56:04;;;;;;;9.52;6.80;;;;;;;31.90;45.73;94508.31;5051423;28;20222;-42
2023/08/27 06:58:31;;;;;;;10.43;6.47;;;;;;;31.69;45.82;94506.84;5052273;28;20213;-43
2023/08/27 07:00:58;;;;;;;8.55;6.75;;;;;;;31.52;46.05;94507.22;5052078;28;20187;-43
2023/08/27 07:03:26;;;;;;;11.95;6.10;;;;;;;31.70;45.83;94503.16;5052290;28;20191;-44
2023/08/27 07:05:53;;;;;;;9.35;6.15;;;;;;;31.91;45.43;94501.16;5051856;28;20245;-45
2023/08/27 07:08:20;;;;;;;6.97;5.80;;;;;;;32.03;44.39;94500.81;5052196;28;20218;-43
2023/08/27 07:10:47;;;;;;;9.93;6.28;;;;;;;31.84;44.81;94506.78;5051558;28;20720;-44
2023/08/27 07:13:13;;;;;;;8.88;6.18;;;;;;;31.65;45.17;94493.41;5051826;28;20194;-43
2023/08/27 07:15:40;;;;;;;8.15;6.30;;;;;;;31.68;45.40;94515.84;5051788;28;20728;-44
2023/08/27 07:18:07;;;;;;;8.63;6.07;;;;;;;31.57;45.70;94515.13;5051839;28;20653;-42
2023/08/27 07:20:35;;;;;;;6.72;5.47;;;;;;;31.71;44.97;94523.22;5052154;28;20183;-44
2023/08/27 07:23:04;;;;;;;9.57;5.72;;;;;;;31.72;45.19;94514.22;5052108;28;20525;-43
2023/08/27 07:25:31;;;;;;;7.18;6.40;;;;;;;31.55;45.03;94525.16;5051477;28;20219;-43
2023/08/27 07:27:58;;;;;;;10.40;5.60;;;;;;;31.36;45.51;94525.00;5051354;28;20226;-44
2023/08/27 07:30:24;;;;;;;8.20;5.68;;;;;;;31.43;45.46;94527.34;5051527;28;20221;-44
2023/08/27 07:32:51;;;;;;;7.07;6.30;;;;;;;31.59;45.50;94531.50;5051299;28;20287;-43
2023/08/27 07:35:18;;;;;;;7.45;6.40;;;;;;;31.93;45.13;94523.63;5051484;28;20221;-44
2023/08/27 07:37:47;;;;;;;9.65;5.90;;;;;;;32.16;43.70;94521.34;5051233;28;20210;-44
2023/08/27 07:40:14;;;;;;;7.47;5.90;;;;;;;32.40;43.59;94511.63;5051333;28;20221;-44
2023/08/27 07:42:41;;;;;;;8.40;6.20;;;;;;;32.39;43.34;94506.63;5051111;28;20202;-44
2023/08/27 07:45:09;;;;;;;11.23;6.60;;;;;;;32.40;43.33;94503.69;5051153;28;20190;-44
2023/08/27 07:47:36;;;;;;;13.18;6.75;;;;;;;32.48;43.20;94507.59;5051366;28;20179;-44
2023/08/27 07:50:03;;;;;;;12.45;6.97;;;;;;;32.51;43.13;94507.03;5051642;28;20226;-43
2023/08/27 07:52:30;;;;;;;9.20;6.88;;;;;;;32.74;42.62;94502.06;5050848;28;20188;-43
2023/08/27 07:54:58;;;;;;;10.27;6.35;;;;;;;32.58;42.02;94443.16;5051136;28;20191;-43
2023/08/27 07:57:25;;;;;;;7.15;6.40;;;;;;;33.18;41.87;94499.97;5050923;28;20301;-44
2023/08/27 07:59:54;;;;;;;14.10;6.80;;;;;;;33.37;41.50;94510.56;5050881;28;20662;-44
2023/08/27 08:02:20;;;;;;;11.10;7.03;;;;;;;33.48;41.44;94498.03;5050716;28;20198;-43
2023/08/27 08:04:48;;;;;;;10.63;6.88;;;;;;;33.49;41.38;94494.28;5051045;28;20512;-44
2023/08/27 08:07:14;;;;;;;9.73;6.65;;;;;;;33.37;41.22;94492.03;5050484;28;20187;-43
2023/08/27 08:09:41;;;;;;;8.95;6.63;;;;;;;33.48;41.26;94492.72;5050347;28;20210;-44
2023/08/27 08:12:09;;;;;;;9.55;6.95;;;;;;;33.61;41.15;94491.22;5050891;28;20198;-45
2023/08/27 08:14:36;;;;;;;11.32;6.88;;;;;;;33.74;40.88;94481.75;5050364;28;20678;-44
2023/08/27 08:17:03;;;;;;;9.45;6.60;;;;;;;33.89;40.59;94482.28;5050523;28;20276;-44
2023/08/27 08:19:30;;;;;;;9.27;6.57;;;;;;;34.06;40.07;94486.28;5050424;28;20706;-43
2023/08/27 08:21:57;;;;;;;10.32;6.53;;;;;;;34.11;39.88;94473.75;5051009;28;20179;-44
2023/08/27 08:24:24;;;;;;;10.50;6.68;;;;;;;34.11;40.09;94473.75;5050137;28;20662;-44
2023/08/27 08:26:52;;;;;;;10.63;6.35;;;;;;;34.18;39.63;94473.34;5050601;28;20194;-44
2023/08/27 08:29:20;;;;;;;7.22;5.85;;;;;;;34.35;39.36;94467.50;5050012;28;20257;-45
2023/08/27 08:31:47;;;;;;;7.28;6.53;;;;;;;34.58;39.39;94469.22;5050752;28;20273;-44
2023/08/27 08:34:14;;;;;;;9.13;7.18;;;;;;;34.54;38.33;94459.47;5050007;28;20187;-43
2023/08/27 08:36:41;;;;;;;12.38;6.80;;;;;;;34.54;38.39;94467.44;5050053;28;20201;-43
2023/08/27 08:39:08;;;;;;;7.22;6.53;;;;;;;34.48;37.80;94461.44;5050352;28;20241;-43
2023/08/27 08:41:39;;;;;;;7.45;5.70;;;;;;;34.43;38.10;94456.19;5049685;28;20529;-43
2023/08/27 08:44:21;;;;;;;7.72;5.72;;;;;;;34.58;37.86;94465.78;5051473;28;20210;-44
2023/08/27 08:46:51;;;;;;;8.55;5.63;;;;;;;34.74;37.66;94458.31;5050012;28;20728;-44
2023/08/27 08:49:22;;;;;;;9.07;5.38;;;;;;;34.93;37.30;94456.31;5049524;28;20222;-44
2023/08/27 08:51:54;;;;;;;9.95;5.95;;;;;;;35.05;36.88;94453.19;5050147;28;20248;-45
2023/08/27 08:54:23;;;;;;;6.93;5.45;;;;;;;35.04;36.80;94456.94;5049660;28;20924;-44
2023/08/27 08:56:56;;;;;;;6.65;5.30;;;;;;;35.04;36.53;94447.09;5049591;28;20659;-44
2023/08/27 08:59:27;;;;;;;6.93;5.63;;;;;;;35.01;36.72;94442.38;5049832;28;20191;-44
2023/08/27 09:01:55;;;;;;;7.60;5.63;;;;;;;35.07;36.26;94443.84;5049791;28;20199;-46
2023/08/27 09:04:23;;;;;;;9.23;5.07;;;;;;;35.13;36.49;94440.00;5049448;28;20187;-43
2023/08/27 09:06:51;;;;;;;6.03;5.47;;;;;;;35.13;35.91;94437.31;5050022;28;20199;-44
2023/08/27 09:09:19;;;;;;;7.57;5.15;;;;;;;35.07;35.83;94427.91;5049671;28;20191;-43
2023/08/27 09:11:47;;;;;;;10.77;5.72;;;;;;;35.13;36.00;94432.00;5049750;28;20218;-43
2023/08/27 09:14:14;;;;;;;7.63;5.28;;;;;;;35.06;36.11;94436.97;5049619;28;20206;-43
2023/08/27 09:16:41;;;;;;;6.22;5.18;;;;;;;35.00;36.33;94429.38;5049100;28;20187;-44
2023/08/27 09:19:09;;;;;;;8.38;5.75;;;;;;;35.00;36.60;94429.38;5049183;28;20249;-43
2023/08/27 09:21:36;;;;;;;6.95;5.95;;;;;;;35.11;36.87;94425.44;5049364;28;20225;-43
2023/08/27 09:24:03;;;;;;;26.73;5.32;;;;;;;35.22;36.75;94420.66;5049654;28;20199;-44
2023/08/27 09:26:30;;;;;;;5.88;5.20;;;;;;;35.28;36.74;94422.13;5049100;28;20198;-44
2023/08/27 09:28:57;;;;;;;6.68;5.40;;;;;;;35.38;36.21;94411.28;5049255;28;20740;-44
2023/08/27 09:31:37;;;;;;;6.40;4.95;;;;;;;35.32;36.41;94418.59;5049015;28;20206;-44
2023/08/27 09:34:04;;;;;;;7.63;5.38;;;;;;;35.25;36.67;94415.53;5049656;28;20275;-45
2023/08/27 09:36:34;;;;;;;7.57;5.22;;;;;;;35.30;36.33;94407.44;5048973;28;20610;-45
2023/08/27 09:39:07;;;;;;;11.50;5.30;;;;;;;35.34;35.91;94403.09;5049436;28;20626;-45
2023/08/27 09:41:37;;;;;;;9.63;5.15;;;;;;;35.42;34.91;94404.25;5049358;28;20214;-44
2023/08/27 09:44:05;;;;;;;7.10;5.07;;;;;;;35.27;35.04;94412.56;5049104;28;20195;-44
2023/08/27 09:46:31;;;;;;;6.68;5.00;;;;;;;35.07;35.47;94408.50;5049321;28;20179;-45
2023/08/27 09:48:59;;;;;;;5.70;4.20;;;;;;;34.97;35.56;94409.50;5049063;28;20191;-44
2023/08/27 09:51:28;;;;;;;7.55;5.53;;;;;;;34.80;35.87;94403.97;5049310;28;20179;-45
2023/08/27 09:53:56;;;;;;;9.23;5.25;;;;;;;34.66;35.98;94383.53;5049420;28;20741;-44
2023/08/27 09:56:24;;;;;;;8.10;4.90;;;;;;;34.47;36.04;94374.88;5048993;28;20194;-44
2023/08/27 09:58:53;;;;;;;7.00;5.30;;;;;;;34.17;36.39;94373.56;5049032;28;20777;-44
2023/08/27 10:01:20;;;;;;;11.15;5.45;;;;;;;34.28;36.77;94392.72;5049092;28;20214;-44
2023/08/27 10:03:47;;;;;;;9.50;5.15;;;;;;;34.33;36.33;94398.75;5049086;28;20632;-44
2023/08/27 10:06:15;;;;;;;6.30;5.68;;;;;;;34.28;36.58;94392.72;5049007;28;20643;-46
2023/08/27 10:08:50;;;;;;;6.70;5.18;;;;;;;34.23;36.85;94382.22;5048891;28;20654;-42
2023/08/27 10:11:18;;;;;;;5.85;5.05;;;;;;;34.10;36.59;94362.53;5048859;28;20191;-44
2023/08/27 10:13:45;;;;;;;9.90;6.50;;;;;;;34.28;36.65;94382.91;5049128;28;20254;-43
2023/08/27 10:16:13;;;;;;;8.57;5.10;;;;;;;34.30;36.51;94377.31;5049228;28;20245;-46
2023/08/27 10:18:41;;;;;;;8.70;4.30;;;;;;;34.26;36.47;94374.47;5048581;28;20241;-44
2023/08/27 10:21:09;;;;;;;8.48;5.22;;;;;;;34.22;36.48;94370.81;5049060;28;20191;-45
2023/08/27 10:23:39;;;;;;;6.45;4.93;;;;;;;34.13;36.87;94369.94;5048883;28;20191;-45
2023/08/27 10:26:06;;;;;;;6.85;4.68;;;;;;;33.88;36.63;94371.13;5048832;28;20585;-46
2023/08/27 10:28:35;;;;;;;5.72;4.40;;;;;;;33.62;37.19;94363.59;5048543;28;20226;-44
2023/08/27 10:31:02;;;;;;;8.68;5.05;;;;;;;33.63;37.08;94361.72;5051590;28;20202;-44
2023/08/27 10:33:29;;;;;;;6.10;5.07;;;;;;;33.65;37.26;94367.53;5052293;28;20183;-43
2023/08/27 10:35:59;;;;;;;12.55;5.43;;;;;;;33.68;37.07;94351.06;5052788;28;20179;-44
2023/08/27 10:38:28;;;;;;;8.23;5.38;;;;;;;33.76;38.01;94352.22;5052130;28;20233;-44
2023/08/27 10:40:54;;;;;;;8.15;4.97;;;;;;;33.74;37.34;94346.44;5052688;28;20291;-44
2023/08/27 10:43:22;;;;;;;7.70;5.07;;;;;;;33.80;37.14;94350.56;5052208;28;20183;-44
2023/08/27 10:45:51;;;;;;;5.60;5.10;;;;;;;33.89;36.68;94338.19;5052623;28;20195;-43
2023/08/27 10:48:26;;;;;;;9.90;5.20;;;;;;;33.79;36.07;94341.84;5052234;28;20205;-44
2023/08/27 10:50:56;;;;;;;14.52;4.88;;;;;;;33.80;36.20;94354.00;5052145;28;20183;-43
2023/08/27 10:53:24;;;;;;;8.32;4.30;;;;;;;33.74;35.54;94335.84;5051831;28;20237;-44
2023/08/27 10:55:52;;;;;;;12.48;4.78;;;;;;;33.74;35.73;94333.97;5052056;28;20693;-43
2023/08/27 10:58:21;;;;;;;7.40;5.28;;;;;;;33.77;35.75;94335.25;5051983;28;20227;-42
2023/08/27 11:01:09;;;;;;;6.20;4.32;;;;;;;33.72;35.58;94328.16;5052172;28;20225;-43
2023/08/27 11:04:01;;;;;;;4.93;4.13;;;;;;;33.60;35.70;94325.97;5051907;28;20249;-45
2023/08/27 11:06:48;;;;;;;5.78;4.97;;;;;;;33.63;35.55;94333.34;4970903;28;20268;-43
2023/08/27 11:09:18;;;;;;;7.15;4.50;;;;;;;33.64;35.21;94323.53;4932519;29;20236;-43
2023/08/27 11:11:48;;;;;;;5.55;4.22;;;;;;;33.63;35.37;94325.38;4932073;29;20203;-43
2023/08/27 11:14:17;;;;;;;13.93;5.10;;;;;;;33.59;35.08;94329.69;4932328;29;20257;-43
2023/08/27 11:16:46;;;;;;;8.32;4.70;;;;;;;33.63;35.30;94325.38;4932015;29;20290;-43
2023/08/27 11:19:13;;;;;;;6.15;4.78;;;;;;;33.67;35.07;94321.06;4932079;29;20268;-44
2023/08/27 11:21:47;;;;;;;5.72;4.82;;;;;;;33.65;35.81;94317.16;4931833;29;20289;-44
2023/08/27 11:24:18;;;;;;;9.93;5.07;;;;;;;33.63;35.96;94317.44;4932180;29;20199;-45
2023/08/27 11:26:47;;;;;;;4.97;3.90;;;;;;;33.65;35.60;94317.16;4931684;29;20230;-44
2023/08/27 11:29:15;;;;;;;4.78;4.30;;;;;;;33.67;35.61;94305.16;4932046;29;20326;-45